x

Halifax Harbour (44258) Wave Buoy

6:00am - Sat 31st Jan 2015 All times are EST. -5 hours from GMT.

  • Sig Wave height 10.8ft
  • Peak Period 6s
  • Wind
    38mph, 47mph gusts
  • Air Temp 34°f
  • Sea Pressure 991mb
  • Halifax Harbour
  • Halifax Harbour

More Historic Weather Station data

Upgrade to MSW Pro to gain access to the past 30 days of data for over 8000 Wavebouys and Weather Stations around the globe.

Join Pro

Comparision Forecast

View Surf forecast
   
Sat 01/31 6:00am 11ft 6s 38 47 mph 991mb 34f
5:00am 10ft 6s 38 51 mph 992.9mb 34f
3:00am 7.5ft 5s 36 45 mph 997.2mb 33f
2:00am 6.5ft 5s 31 36 mph 1000.8mb 33f
1:00am  -   -  29
mph
1002.3mb 33f
12:00am 5ft 10s 22 27 mph 1004.8mb 33f
Fri 01/30 11:00pm 5ft 10s 20 25 mph 1006.9mb 33f
10:00pm 4.5ft 11s 18 20 mph 1008.1mb 32f
9:00pm 4ft 12s 16 18 mph 1009.2mb 30f
8:00pm 4ft 10s 13 16 mph 1009.3mb 29f
7:00pm 4ft 10s 9 11 mph 1010.8mb 28f
6:00pm 3.5ft 10s 4 7 mph 1011.3mb 27f
5:00pm 3.5ft 10s 2 4 mph 1011.9mb 27f
4:00pm 3.5ft 10s 4 7 mph 1012mb 25f
3:00pm 3.5ft 9s 4 7 mph 1012.2mb 24f
2:00pm 3.5ft 9s 7 9 mph 1013mb 23f
1:00pm 3.5ft 9s 4 7 mph 1013.4mb 22f
12:00pm 3ft 10s 2 4 mph 1013.7mb 21f
11:00am 3ft 10s 4 7 mph 1014.5mb 20f
10:00am 3ft 10s 4 7 mph 1015.4mb 20f
9:00am 3.5ft 10s 4 9 mph 1016mb 19f
8:00am 3.5ft 10s 4 7 mph 1016.4mb 19f
7:00am 3.5ft 10s 11 13 mph 1017mb 19f
6:00am 3ft 9s 4 9 mph 1016.9mb 21f
5:00am 3.5ft 10s 9 11 mph 1017.1mb 20f
4:00am 3.5ft 10s 7 9 mph 1018mb 21f
3:00am 3.5ft 10s 7 9 mph 1018.4mb 21f
2:00am 3.5ft 10s 4 7 mph 1018.8mb 21f
1:00am 3.5ft 10s 7 11 mph 1019.1mb 22f
12:00am 4ft 11s 9 13 mph 1020mb 21f
Thu 01/29 11:00pm 4ft 11s 9 13 mph 1020.4mb 21f
10:00pm 4.5ft 10s 7 13 mph 1020.9mb 22f
9:00pm 4.5ft 10s 9 13 mph 1021.1mb 22f
8:00pm 4.5ft 10s 11 16 mph 1021.4mb 23f
7:00pm 5ft 10s 16 18 mph 1021mb 25f
6:00pm 4.5ft 11s 16 18 mph 1021.3mb 27f
5:00pm 4.5ft 10s 11 16 mph 1021.8mb 27f
4:00pm 5ft 11s 11 16 mph 1021.6mb 27f
3:00pm 5ft 10s 11 13 mph 1021.9mb 26f
2:00pm 4.5ft 11s 13 16 mph 1021.9mb 26f
1:00pm  -   -  13
mph
1021.7mb 24f
12:00pm 4.5ft 11s 13 18 mph 1022.4mb 23f
11:00am 4.5ft 12s 13 16 mph 1023.3mb 22f
10:00am 5ft 10s 13 20 mph 1023.6mb 20f
9:00am 5ft 11s 9 13 mph 1024.2mb 19f
8:00am 5ft 10s 9 11 mph 1023.7mb 19f
7:00am 5.5ft 10s 13 18 mph 1022.2mb 19f
6:00am 6ft 9s 22 29 mph 1019.9mb 20f
5:00am 6.5ft 11s 25 29 mph 1019.3mb 20f
4:00am 7ft 10s 22 27 mph 1018.8mb 20f
3:00am 7ft 11s 27 31 mph 1018mb 21f
2:00am 7ft 10s 20 25 mph 1017.3mb 21f
1:00am 8ft 11s 16 20 mph 1017.1mb 22f
12:00am 8ft 10s 16 22 mph 1015.9mb 22f
Wed 01/28 11:00pm 8ft 11s 20 27 mph 1014.5mb 22f
10:00pm 9ft 11s 22 29 mph 1013.1mb 23f
8:00pm 9.5ft 12s 29 36 mph 1009.6mb 25f
6:00pm  -   -  31
mph
- -
5:00pm 14ft 11s 4 11 mph 1002.5mb 34f
4:00pm 14.5ft 11s 11 16 mph 1001.3mb 35f
3:00pm 14.5ft 12s 16 22 mph 1000.9mb 35f
2:00pm 13ft 12s 18 25 mph 1000.4mb 37f
12:00pm 13.5ft 11s 16 20 mph 1000mb 38f
11:00am 14ft 11s 16 20 mph 1000.7mb 38f
10:00am 12.5ft 12s 13 18 mph 1001.2mb 38f
9:00am 12ft 11s 4 7 mph 1001.2mb 36f
8:00am 12ft 11s 7 11 mph 1000.9mb 36f
6:00am  -   -  2
mph
- -
5:00am 15ft 11s 2
mph
998.9mb 31f
4:00am 13.5ft 11s 2 4 mph 998.4mb 31f
2:00am  -   -  4
mph
997.3mb 31f
12:00am 12.5ft 12s 4
mph
996mb 31f
Tue 01/27 11:00pm 12.5ft 12s 4 7 mph 996.1mb 30f
9:00pm 13.5ft 11s 7
mph
995.8mb 30f
6:00pm 14.5ft 12s 22 25 mph 995.8mb 30f
4:00pm 15.5ft 11s 31 40 mph 997.5mb 31f
3:00pm 15ft 12s 34 43 mph 997.6mb 30f
2:00pm 16ft 12s 34
mph
998.2mb 29f
1:00pm  -   -  36
mph
- 28f